Coastal 303 — WDE2540 — position and weather

sailwx.info

Track history (hours):
 
Tides and Currents Weather Stations Pressure Air Temp Water Temp Dewpoint Dewpoint Depression Visibility Wind Speed Wind Dir Waves Ship Positions

Coastal 303

More information available from US FCC via Universal Licensing System and Coast Guard Vessel Documentation Center.

Last reported at 2014-Sep-01 08:11 UTC. Time now 2014-Sep-03 02:13 UTC.
Position N 27°38' W 083°13'.

Length 180 m; draft 8.2 m.

Type: Towing. MMSI: 366751340.

Date/timePositionNaut miles runAvg speedWind from/ knotsBaromVisibWave heightAir tempDewpointWater temp
2014-Sep-01 08:11N 27°38' W 083°13'6 9.5
2014-Sep-01 07:33N 27°37' W 083°06'9 9.4
2014-Sep-01 06:33N 27°36' W 082°56'9 9.2
2014-Sep-01 05:33N 27°36' W 082°45'9 8.7
2014-Sep-01 04:33N 27°40' W 082°36'9 8.9
2014-Sep-01 03:33N 27°47' W 082°31'9 8.1
2014-Sep-01 02:29N 27°55' W 082°26'1 1.1
2014-Sep-01 01:31N 27°56' W 082°26'0 0.0
2014-Sep-01 00:31N 27°56' W 082°26'0 0.0
2014-Aug-31 23:31N 27°56' W 082°26'0 0.0
2014-Aug-31 15:13N 27°56' W 082°26'0 0.0
2014-Aug-31 14:25N 27°56' W 082°26'0 0.0
2014-Aug-31 12:07N 27°56' W 082°26'0 0.0
2014-Aug-31 11:19N 27°56' W 082°26'0 0.0
2014-Aug-31 06:28N 27°56' W 082°26'0 0.0
2014-Aug-31 05:28N 27°56' W 082°26'0 0.0
2014-Aug-31 04:31N 27°56' W 082°26'0 0.0
2014-Aug-31 03:31N 27°56' W 082°26'0 0.0
2014-Aug-31 02:25N 27°56' W 082°26'0 0.0
2014-Aug-31 00:28N 27°56' W 082°26'0 0.0
2014-Aug-30 23:31N 27°56' W 082°26'0 0.0
2014-Aug-30 22:28N 27°56' W 082°26'1 0.1
2014-Aug-30 14:33N 27°55' W 082°26'7 6.5
2014-Aug-30 13:32N 27°49' W 082°26'1 1.4
2014-Aug-30 12:31N 27°48' W 082°25'0 0.1
2014-Aug-30 11:25N 27°48' W 082°25'0 0.0
2014-Aug-30 10:31N 27°48' W 082°25'0 0.0
2014-Aug-30 09:31N 27°48' W 082°25'0 0.0
2014-Aug-30 08:31N 27°48' W 082°25'0 0.0
2014-Aug-30 06:25N 27°48' W 082°25'0 0.0
2014-Aug-30 05:31N 27°48' W 082°25'0 0.0
2014-Aug-30 04:25N 27°48' W 082°25'0 0.0
2014-Aug-30 03:19N 27°48' W 082°25'0 0.0
2014-Aug-30 01:31N 27°48' W 082°25'0 0.0
2014-Aug-30 00:13N 27°48' W 082°25'0 0.0
2014-Aug-29 23:31N 27°48' W 082°25'0 0.0
2014-Aug-29 22:31N 27°48' W 082°25'0 0.0
2014-Aug-29 21:19N 27°48' W 082°25'0 0.0
2014-Aug-29 20:25N 27°48' W 082°25'0 0.0
2014-Aug-29 19:19N 27°48' W 082°25'0 0.0
2014-Aug-29 18:31N 27°48' W 082°25'0 0.0
2014-Aug-29 17:31N 27°48' W 082°25'0 0.0
2014-Aug-29 16:31N 27°48' W 082°25'0 0.0
2014-Aug-29 15:07N 27°48' W 082°25'0 0.0
2014-Aug-29 14:31N 27°48' W 082°25'0 0.0
2014-Aug-29 12:31N 27°48' W 082°25'0 0.0
2014-Aug-29 11:28N 27°48' W 082°25'0 0.0
2014-Aug-29 10:31N 27°48' W 082°25'0 0.0
2014-Aug-29 09:31N 27°48' W 082°25'0 0.0
2014-Aug-29 08:31N 27°48' W 082°25'0 0.0
2014-Aug-29 07:25N 27°48' W 082°25'0 0.0
2014-Aug-29 06:31N 27°48' W 082°25'0 0.0
2014-Aug-29 05:25N 27°48' W 082°25'0 0.0
2014-Aug-29 04:25N 27°48' W 082°25'0 0.1
2014-Aug-29 02:32N 27°48' W 082°25'3 2.6
2014-Aug-29 01:28N 27°48' W 082°28'7 7.9
2014-Aug-29 00:33N 27°43' W 082°33'9 8.2
2014-Aug-28 23:31N 27°37' W 082°40'7 7.2
2014-Aug-28 22:33N 27°37' W 082°48'8 7.9
2014-Aug-28 21:33N 27°36' W 082°57'35 6.7
2014-Aug-28 16:19N 27°43' W 083°35'  
2014-Aug-25 14:33N 30°02' W 090°28'12 8.9
2014-Aug-25 13:15N 30°02' W 090°42'710.5
2014-Aug-25 12:34N 29°59' W 090°49'2 1.6
2014-Aug-25 11:33N 30°00' W 090°50'0 0.0
2014-Aug-25 10:33N 30°00' W 090°50'0 0.0
2014-Aug-25 09:34N 30°00' W 090°50'0 0.0
2014-Aug-25 08:33N 30°00' W 090°50'0 0.0
2014-Aug-25 07:32N 30°00' W 090°50'0 0.0
2014-Aug-25 06:29N 30°00' W 090°50'0 0.0
2014-Aug-25 05:31N 30°00' W 090°50'0 0.0
2014-Aug-25 04:31N 30°00' W 090°50'0 0.0
2014-Aug-25 03:32N 30°00' W 090°50'0 0.0
2014-Aug-25 02:28N 30°00' W 090°50'0 0.0
2014-Aug-25 01:32N 30°00' W 090°50'0 0.0
2014-Aug-25 00:22N 30°00' W 090°50'0 0.0
2014-Aug-24 23:05N 30°00' W 090°50'0 0.0
2014-Aug-24 17:32N 30°00' W 090°50'0 0.0
2014-Aug-24 14:32N 30°00' W 090°50'0 0.0
2014-Aug-24 13:17N 30°00' W 090°50'0 0.0
2014-Aug-24 12:26N 30°00' W 090°50'0 0.0
2014-Aug-24 11:32N 30°00' W 090°50'0 0.0
2014-Aug-24 10:29N 30°00' W 090°50'0 0.0
2014-Aug-24 09:32N 30°00' W 090°50'0 0.0
2014-Aug-24 08:32N 30°00' W 090°50'0 0.0
2014-Aug-24 07:32N 30°00' W 090°50'0 0.0
2014-Aug-24 06:31N 30°00' W 090°50'0 0.0
2014-Aug-24 05:31N 30°00' W 090°50'0 0.0
2014-Aug-24 04:31N 30°00' W 090°50'0 0.0
2014-Aug-24 03:33N 30°00' W 090°50'0 0.0
2014-Aug-24 02:33N 30°00' W 090°50'0 0.0
2014-Aug-24 01:33N 30°00' W 090°50'0 0.0
2014-Aug-24 00:31N 30°00' W 090°50'0 0.0
2014-Aug-23 23:32N 30°00' W 090°50'0 0.0
2014-Aug-23 22:13N 30°00' W 090°50'0 0.0
2014-Aug-23 19:18N 30°00' W 090°50'3 0.2
2014-Aug-23 03:33N 30°01' W 090°47'0 0.0
2014-Aug-23 02:33N 30°01' W 090°47'0 0.0
2014-Aug-23 01:33N 30°01' W 090°47'0 0.0
2014-Aug-23 00:33N 30°01' W 090°47'0 0.0
2014-Aug-22 23:33N 30°01' W 090°47'8 1.4
2014-Aug-22 18:08N 30°03' W 090°38'4 6.9
2014-Aug-22 17:33N 30°03' W 090°33'31 6.0
2014-Aug-22 12:19N 29°56' W 089°59'4 5.2
2014-Aug-22 11:28N 29°52' W 089°56'  
Track history (hours):
 
Tides and Currents Weather Stations Pressure Air Temp Water Temp Dewpoint Dewpoint Depression Visibility Wind Speed Wind Dir Waves Ship Positions

Coastal 303

More information available from US FCC via Universal Licensing System and Coast Guard Vessel Documentation Center.

Last reported at 2014-Sep-01 08:11 UTC. Time now 2014-Sep-03 02:13 UTC.
Position N 27°38' W 083°13'.

Length 180 m; draft 8.2 m.

Type: Towing. MMSI: 366751340.

Date/timePositionNaut miles runAvg speedWind from/ knotsBaromVisibWave heightAir tempDewpointWater temp
2014-Sep-01 08:11N 27°38' W 083°13'6 9.5
2014-Sep-01 07:33N 27°37' W 083°06'9 9.4
2014-Sep-01 06:33N 27°36' W 082°56'9 9.2
2014-Sep-01 05:33N 27°36' W 082°45'9 8.7
2014-Sep-01 04:33N 27°40' W 082°36'9 8.9
2014-Sep-01 03:33N 27°47' W 082°31'9 8.1
2014-Sep-01 02:29N 27°55' W 082°26'1 1.1
2014-Sep-01 01:31N 27°56' W 082°26'0 0.0
2014-Sep-01 00:31N 27°56' W 082°26'0 0.0
2014-Aug-31 23:31N 27°56' W 082°26'0 0.0
2014-Aug-31 15:13N 27°56' W 082°26'0 0.0
2014-Aug-31 14:25N 27°56' W 082°26'0 0.0
2014-Aug-31 12:07N 27°56' W 082°26'0 0.0
2014-Aug-31 11:19N 27°56' W 082°26'0 0.0
2014-Aug-31 06:28N 27°56' W 082°26'0 0.0
2014-Aug-31 05:28N 27°56' W 082°26'0 0.0
2014-Aug-31 04:31N 27°56' W 082°26'0 0.0
2014-Aug-31 03:31N 27°56' W 082°26'0 0.0
2014-Aug-31 02:25N 27°56' W 082°26'0 0.0
2014-Aug-31 00:28N 27°56' W 082°26'0 0.0
2014-Aug-30 23:31N 27°56' W 082°26'0 0.0
2014-Aug-30 22:28N 27°56' W 082°26'1 0.1
2014-Aug-30 14:33N 27°55' W 082°26'7 6.5
2014-Aug-30 13:32N 27°49' W 082°26'1 1.4
2014-Aug-30 12:31N 27°48' W 082°25'0 0.1
2014-Aug-30 11:25N 27°48' W 082°25'0 0.0
2014-Aug-30 10:31N 27°48' W 082°25'0 0.0
2014-Aug-30 09:31N 27°48' W 082°25'0 0.0
2014-Aug-30 08:31N 27°48' W 082°25'0 0.0
2014-Aug-30 06:25N 27°48' W 082°25'0 0.0
2014-Aug-30 05:31N 27°48' W 082°25'0 0.0
2014-Aug-30 04:25N 27°48' W 082°25'0 0.0
2014-Aug-30 03:19N 27°48' W 082°25'0 0.0
2014-Aug-30 01:31N 27°48' W 082°25'0 0.0
2014-Aug-30 00:13N 27°48' W 082°25'0 0.0
2014-Aug-29 23:31N 27°48' W 082°25'0 0.0
2014-Aug-29 22:31N 27°48' W 082°25'0 0.0
2014-Aug-29 21:19N 27°48' W 082°25'0 0.0
2014-Aug-29 20:25N 27°48' W 082°25'0 0.0
2014-Aug-29 19:19N 27°48' W 082°25'0 0.0
2014-Aug-29 18:31N 27°48' W 082°25'0 0.0
2014-Aug-29 17:31N 27°48' W 082°25'0 0.0
2014-Aug-29 16:31N 27°48' W 082°25'0 0.0
2014-Aug-29 15:07N 27°48' W 082°25'0 0.0
2014-Aug-29 14:31N 27°48' W 082°25'0 0.0
2014-Aug-29 12:31N 27°48' W 082°25'0 0.0
2014-Aug-29 11:28N 27°48' W 082°25'0 0.0
2014-Aug-29 10:31N 27°48' W 082°25'0 0.0
2014-Aug-29 09:31N 27°48' W 082°25'0 0.0
2014-Aug-29 08:31N 27°48' W 082°25'0 0.0
2014-Aug-29 07:25N 27°48' W 082°25'0 0.0
2014-Aug-29 06:31N 27°48' W 082°25'0 0.0
2014-Aug-29 05:25N 27°48' W 082°25'0 0.0
2014-Aug-29 04:25N 27°48' W 082°25'0 0.1
2014-Aug-29 02:32N 27°48' W 082°25'3 2.6
2014-Aug-29 01:28N 27°48' W 082°28'7 7.9
2014-Aug-29 00:33N 27°43' W 082°33'9 8.2
2014-Aug-28 23:31N 27°37' W 082°40'7 7.2
2014-Aug-28 22:33N 27°37' W 082°48'8 7.9
2014-Aug-28 21:33N 27°36' W 082°57'35 6.7
2014-Aug-28 16:19N 27°43' W 083°35'  
2014-Aug-25 14:33N 30°02' W 090°28'12 8.9
2014-Aug-25 13:15N 30°02' W 090°42'710.5
2014-Aug-25 12:34N 29°59' W 090°49'2 1.6
2014-Aug-25 11:33N 30°00' W 090°50'0 0.0
2014-Aug-25 10:33N 30°00' W 090°50'0 0.0
2014-Aug-25 09:34N 30°00' W 090°50'0 0.0
2014-Aug-25 08:33N 30°00' W 090°50'0 0.0
2014-Aug-25 07:32N 30°00' W 090°50'0 0.0
2014-Aug-25 06:29N 30°00' W 090°50'0 0.0
2014-Aug-25 05:31N 30°00' W 090°50'0 0.0
2014-Aug-25 04:31N 30°00' W 090°50'0 0.0
2014-Aug-25 03:32N 30°00' W 090°50'0 0.0
2014-Aug-25 02:28N 30°00' W 090°50'0 0.0
2014-Aug-25 01:32N 30°00' W 090°50'0 0.0
2014-Aug-25 00:22N 30°00' W 090°50'0 0.0
2014-Aug-24 23:05N 30°00' W 090°50'0 0.0
2014-Aug-24 17:32N 30°00' W 090°50'0 0.0
2014-Aug-24 14:32N 30°00' W 090°50'0 0.0
2014-Aug-24 13:17N 30°00' W 090°50'0 0.0
2014-Aug-24 12:26N 30°00' W 090°50'0 0.0
2014-Aug-24 11:32N 30°00' W 090°50'0 0.0
2014-Aug-24 10:29N 30°00' W 090°50'0 0.0
2014-Aug-24 09:32N 30°00' W 090°50'0 0.0
2014-Aug-24 08:32N 30°00' W 090°50'0 0.0
2014-Aug-24 07:32N 30°00' W 090°50'0 0.0
2014-Aug-24 06:31N 30°00' W 090°50'0 0.0
2014-Aug-24 05:31N 30°00' W 090°50'0 0.0
2014-Aug-24 04:31N 30°00' W 090°50'0 0.0
2014-Aug-24 03:33N 30°00' W 090°50'0 0.0
2014-Aug-24 02:33N 30°00' W 090°50'0 0.0
2014-Aug-24 01:33N 30°00' W 090°50'0 0.0
2014-Aug-24 00:31N 30°00' W 090°50'0 0.0
2014-Aug-23 23:32N 30°00' W 090°50'0 0.0
2014-Aug-23 22:13N 30°00' W 090°50'0 0.0
2014-Aug-23 19:18N 30°00' W 090°50'3 0.2
2014-Aug-23 03:33N 30°01' W 090°47'0 0.0
2014-Aug-23 02:33N 30°01' W 090°47'0 0.0
2014-Aug-23 01:33N 30°01' W 090°47'0 0.0
2014-Aug-23 00:33N 30°01' W 090°47'0 0.0
2014-Aug-22 23:33N 30°01' W 090°47'8 1.4
2014-Aug-22 18:08N 30°03' W 090°38'4 6.9
2014-Aug-22 17:33N 30°03' W 090°33'31 6.0
2014-Aug-22 12:19N 29°56' W 089°59'4 5.2
2014-Aug-22 11:28N 29°52' W 089°56'  

Dump ship's entire track history